createdAt,value
2022-09-01T00:03:24.595Z,22.70
2022-09-01T00:08:29.468Z,22.50
2022-09-01T00:13:34.068Z,22.20
2022-09-01T00:18:37.317Z,22.20
2022-09-01T00:23:40.648Z,22.10
2022-09-01T00:28:45.014Z,22.00
2022-09-01T00:33:48.295Z,21.90
2022-09-01T00:38:53.278Z,21.90
2022-09-01T00:43:59.191Z,21.80
2022-09-01T00:49:03.050Z,21.70
2022-09-01T00:54:07.629Z,21.70
2022-09-01T00:59:12.635Z,21.70
2022-09-01T01:04:15.927Z,21.60
2022-09-01T01:09:19.839Z,21.50
2022-09-01T01:14:24.058Z,21.50
2022-09-01T01:19:55.773Z,21.50
2022-09-01T01:25:01.494Z,21.40
2022-09-01T01:30:09.349Z,21.40
2022-09-01T01:35:14.793Z,21.30
2022-09-01T01:40:20.370Z,21.30
2022-09-01T01:45:24.440Z,21.30
2022-09-01T01:50:29.904Z,21.20
2022-09-01T01:55:34.152Z,21.20
2022-09-01T02:00:37.728Z,21.10
2022-09-01T02:05:41.212Z,21.00
2022-09-01T02:10:46.338Z,20.90
2022-09-01T02:15:50.760Z,20.90
2022-09-01T02:20:54.052Z,20.80
2022-09-01T02:26:17.438Z,20.70
2022-09-01T02:31:20.995Z,20.80
2022-09-01T02:36:25.366Z,20.70
2022-09-01T02:41:34.411Z,20.60
2022-09-01T02:46:37.905Z,20.60
2022-09-01T02:51:40.743Z,20.60
2022-09-01T02:56:48.235Z,20.60
2022-09-01T03:01:51.867Z,20.50
2022-09-01T03:06:54.904Z,20.50
2022-09-01T03:11:59.639Z,20.50
2022-09-01T03:17:02.575Z,20.50
2022-09-01T03:22:05.547Z,20.40
2022-09-01T03:27:11.762Z,20.30
2022-09-01T03:32:14.675Z,20.30
2022-09-01T03:37:18.968Z,20.20
2022-09-01T03:42:25.918Z,20.20
2022-09-01T03:47:28.846Z,20.20
2022-09-01T03:52:31.693Z,20.10
2022-09-01T03:57:37.498Z,20.10
2022-09-01T04:02:41.009Z,20.10
2022-09-01T04:07:48.587Z,20.10
2022-09-01T04:12:52.803Z,20.00
2022-09-01T04:18:10.798Z,19.90
2022-09-01T04:23:13.683Z,20.50
2022-09-01T04:28:23.122Z,20.70
2022-09-01T04:33:27.453Z,20.80
2022-09-01T04:38:30.666Z,20.90
2022-09-01T04:43:35.120Z,20.90
2022-09-01T04:48:38.404Z,20.90
2022-09-01T04:53:42.752Z,20.90
2022-09-01T04:58:47.931Z,20.90
2022-09-01T05:04:01.508Z,21.00
2022-09-01T05:09:06.939Z,21.00
2022-09-01T05:14:11.164Z,21.00
2022-09-01T05:19:14.783Z,21.00
2022-09-01T05:24:19.062Z,21.00
2022-09-01T05:29:24.336Z,21.00
2022-09-01T05:34:29.737Z,21.00
2022-09-01T05:39:32.591Z,21.10
2022-09-01T05:44:37.112Z,21.00
2022-09-01T05:49:40.522Z,21.00
2022-09-01T05:54:44.131Z,21.10
2022-09-01T05:59:53.862Z,21.10
2022-09-01T06:04:57.423Z,21.20
2022-09-01T06:10:01.461Z,21.20
2022-09-01T06:15:15.659Z,21.20
2022-09-01T06:20:19.090Z,21.30
2022-09-01T06:25:22.036Z,21.00
2022-09-01T06:30:26.621Z,20.40
2022-09-01T06:35:30.148Z,20.20
2022-09-01T06:40:33.900Z,20.30
2022-09-01T06:45:42.511Z,20.60
2022-09-01T06:56:10.122Z,21.90
2022-09-01T07:01:15.578Z,22.00
2022-09-01T07:23:02.946Z,22.20
2022-09-01T07:27:53.092Z,22.30
2022-09-01T07:39:48.758Z,22.30
2022-09-01T07:42:30.244Z,22.10
2022-09-01T07:43:57.330Z,22.40
2022-09-01T07:49:29.243Z,22.40
2022-09-01T07:54:26.159Z,22.50
2022-09-01T07:59:30.208Z,22.50
2022-09-01T08:04:34.599Z,22.50
2022-09-01T08:09:43.724Z,22.50
2022-09-01T08:14:46.895Z,22.60
2022-09-01T08:19:51.919Z,22.60
2022-09-01T08:24:55.241Z,22.60
2022-09-01T08:29:58.570Z,22.60
2022-09-01T08:35:05.016Z,22.70
2022-09-01T08:40:08.871Z,22.70
2022-09-01T08:45:14.291Z,22.70
2022-09-01T08:50:20.561Z,22.70
2022-09-01T08:55:27.311Z,22.70
2022-09-01T09:00:30.886Z,22.70
2022-09-01T09:05:50.779Z,22.80
2022-09-01T09:10:58.736Z,22.80
2022-09-01T09:16:10.361Z,22.80
2022-09-01T09:21:16.428Z,22.90
2022-09-01T09:26:22.286Z,22.90
2022-09-01T09:31:29.620Z,22.90
2022-09-01T09:36:36.015Z,22.90
2022-09-01T09:41:40.114Z,23.00
2022-09-01T09:46:44.154Z,23.00
2022-09-01T09:51:49.748Z,23.00
2022-09-01T09:57:04.856Z,23.00
2022-09-01T10:02:18.922Z,23.10
2022-09-01T10:07:32.988Z,23.10
2022-09-01T10:12:35.764Z,23.10
2022-09-01T10:17:40.577Z,23.10
2022-09-01T10:22:48.367Z,23.10
2022-09-01T10:27:58.399Z,23.20
2022-09-01T10:33:07.965Z,23.20
2022-09-01T10:38:22.314Z,23.20
2022-09-01T10:43:37.252Z,23.30
2022-09-01T10:48:55.846Z,23.30
2022-09-01T10:54:03.595Z,23.30
2022-09-01T11:04:45.393Z,23.40
2022-09-01T11:10:11.890Z,23.40
2022-09-01T11:15:33.528Z,23.40
2022-09-01T11:20:38.092Z,23.40
2022-09-01T11:25:44.803Z,23.60
2022-09-01T11:30:52.838Z,23.60
2022-09-01T11:35:59.667Z,23.60
2022-09-01T11:41:03.794Z,23.60
2022-09-01T11:46:09.808Z,23.60
2022-09-01T11:51:14.860Z,23.60
2022-09-01T11:56:21.812Z,23.70
2022-09-01T12:01:33.031Z,23.70
2022-09-01T12:06:35.817Z,23.70
2022-09-01T12:11:42.383Z,23.70
2022-09-01T12:16:45.279Z,23.70
2022-09-01T12:21:57.147Z,23.70
2022-09-01T12:27:01.789Z,23.70
2022-09-01T12:32:05.307Z,23.80
2022-09-01T12:37:10.273Z,23.80
2022-09-01T12:42:25.464Z,23.80
2022-09-01T12:47:49.993Z,23.90
2022-09-01T12:52:54.146Z,23.80
2022-09-01T12:57:59.820Z,23.90
2022-09-01T13:03:14.175Z,23.90
2022-09-01T13:08:18.971Z,23.90
2022-09-01T13:13:24.198Z,23.90
2022-09-01T13:18:27.345Z,24.00
2022-09-01T13:23:30.750Z,24.00
2022-09-01T13:28:37.481Z,24.10
2022-09-01T13:39:06.011Z,24.10
2022-09-01T13:44:11.066Z,24.20
2022-09-01T13:54:36.675Z,24.30
2022-09-01T13:59:41.867Z,24.30
2022-09-01T14:04:44.756Z,24.40
2022-09-01T14:09:47.639Z,24.50
2022-09-01T14:20:16.085Z,24.50
2022-09-01T14:25:19.318Z,24.60
2022-09-01T14:30:29.063Z,24.60
2022-09-01T14:35:34.286Z,24.50
2022-09-01T14:40:38.631Z,24.50
2022-09-01T14:45:44.659Z,24.60
2022-09-01T14:50:49.930Z,24.50
2022-09-01T14:55:56.224Z,24.50
2022-09-01T15:01:17.528Z,24.50
2022-09-01T15:06:24.268Z,24.70
2022-09-01T15:11:28.417Z,24.70
2022-09-01T15:16:39.396Z,24.70
2022-09-01T15:21:43.001Z,24.80
2022-09-01T15:26:47.278Z,24.70
2022-09-01T15:31:51.514Z,24.60
2022-09-01T15:36:54.362Z,24.60
2022-09-01T15:41:57.143Z,24.60
2022-09-01T15:47:01.323Z,24.60
2022-09-01T15:52:04.133Z,24.60
2022-09-01T15:57:08.905Z,24.60
2022-09-01T16:02:15.201Z,24.60
2022-09-01T16:07:18.047Z,24.40
2022-09-01T16:12:21.174Z,24.50
2022-09-01T16:17:29.841Z,24.20
2022-09-01T16:22:34.281Z,24.00
2022-09-01T16:27:39.751Z,23.90
2022-09-01T16:32:45.593Z,23.90
2022-09-01T16:37:51.328Z,23.90
2022-09-01T16:42:57.936Z,23.80
2022-09-01T16:48:06.599Z,23.80
2022-09-01T16:53:14.035Z,23.70
2022-09-01T16:58:21.856Z,23.70
2022-09-01T17:03:42.477Z,23.70
2022-09-01T17:08:52.668Z,23.60
2022-09-01T17:13:56.567Z,23.60
2022-09-01T17:19:04.734Z,23.50
2022-09-01T17:24:12.186Z,23.40
2022-09-01T17:29:24.558Z,23.30
2022-09-01T17:34:38.707Z,23.30
2022-09-01T17:39:49.216Z,23.30
2022-09-01T17:44:56.301Z,23.30
2022-09-01T17:50:03.101Z,23.20
2022-09-01T17:55:08.783Z,23.10
2022-09-01T18:00:20.199Z,23.20
2022-09-01T18:05:24.916Z,23.10
2022-09-01T18:10:30.063Z,23.00
2022-09-01T18:15:38.684Z,23.00
2022-09-01T18:20:43.881Z,22.80
2022-09-01T18:25:48.951Z,22.80
2022-09-01T18:30:59.160Z,22.80
2022-09-01T18:36:13.363Z,22.70
2022-09-01T18:41:26.771Z,22.70
2022-09-01T18:46:34.228Z,22.70
2022-09-01T18:51:45.969Z,22.60
2022-09-01T18:56:51.466Z,22.50
2022-09-01T19:01:57.036Z,22.50
2022-09-01T19:07:04.863Z,22.40
2022-09-01T19:12:21.597Z,22.40
2022-09-01T19:17:29.967Z,22.30
2022-09-01T19:22:37.580Z,22.30
2022-09-01T19:27:40.415Z,22.20
2022-09-01T19:32:43.246Z,22.10
2022-09-01T19:37:50.660Z,22.10
2022-09-01T19:42:55.989Z,22.00
2022-09-01T19:48:02.834Z,21.90
2022-09-01T19:53:10.394Z,21.80
2022-09-01T19:58:14.979Z,21.70
2022-09-01T20:03:19.422Z,21.80
2022-09-01T20:08:29.127Z,21.80
2022-09-01T20:13:37.696Z,21.80
2022-09-01T20:18:45.481Z,22.10
2022-09-01T20:23:53.827Z,22.00
2022-09-01T20:29:00.947Z,22.00
2022-09-01T20:34:09.349Z,21.90
2022-09-01T20:39:34.573Z,21.90
2022-09-01T20:44:42.886Z,21.90
2022-09-01T20:49:45.783Z,21.90
2022-09-01T20:54:55.938Z,21.80
2022-09-01T21:00:00.022Z,21.80
2022-09-01T21:05:09.046Z,21.70
2022-09-01T21:10:17.011Z,21.60
2022-09-01T21:15:27.311Z,21.60
2022-09-01T21:20:37.974Z,21.60
2022-09-01T21:25:44.071Z,21.50
2022-09-01T21:30:47.714Z,21.50
2022-09-01T21:35:50.591Z,21.60
2022-09-01T21:40:55.028Z,21.60
2022-09-01T21:45:57.890Z,21.50
2022-09-01T21:51:00.704Z,21.40
2022-09-01T21:56:05.158Z,21.40
2022-09-01T22:01:10.527Z,21.30
2022-09-01T22:06:17.418Z,21.20
2022-09-01T22:11:22.583Z,21.20
2022-09-01T22:16:25.448Z,21.10
2022-09-01T22:21:28.302Z,21.00
2022-09-01T22:26:33.281Z,21.10
2022-09-01T22:31:37.718Z,21.00
2022-09-01T22:36:42.878Z,21.00
2022-09-01T22:41:47.327Z,20.90
2022-09-01T22:46:50.289Z,20.90
2022-09-01T22:51:53.079Z,20.90
2022-09-01T22:56:58.615Z,20.90
2022-09-01T23:02:02.693Z,20.80
2022-09-01T23:07:07.140Z,20.80
2022-09-01T23:12:11.369Z,20.80
2022-09-01T23:17:16.438Z,20.70
2022-09-01T23:22:19.255Z,20.70
2022-09-01T23:27:23.440Z,20.60
2022-09-01T23:32:26.917Z,20.60
2022-09-01T23:37:30.028Z,20.60
2022-09-01T23:42:34.367Z,20.60
2022-09-01T23:47:37.161Z,20.60
2022-09-01T23:52:40.401Z,20.60
2022-09-01T23:57:44.580Z,20.50
